»·PEaware :: NWA426 KIAH-KJFK

NWA426 :: KIAH-KJFK

FLIGHT INFORMATION

Flight Status: Arrived
Operator:
Northwest Airlines
More flights by this operator :: More flights under this callsign
Pilot: Anonymous 35349 (35349)
Aircraft: BOEING 767-300
(B763)
More flights by this aircraft type
Origin: KIAH G Bush Intercontinental/Houst
United States
Destination: KJFK Kennedy Intl
United States
More flights between these airports :: More routes between these airports
Route: LURIC7 HAWES SUTTN J29 MEM BNA J42 MOL J24 HCM SAWED J121 SIE CAMRN4
File this flight plan on PilotEdge
Remarks:
Altitude:
(Current/Filed)
31,000ft
Speed:
(Current/Filed)
330kts
Departed: 28-Jun-21 10:06 AM
Arrived: 28-Jun-21 01:12 PM
Distance/Time
Traveled:
1230nm/3:05
Distance/Time
To Go:
Arrived

Flight Plot

Page will automatically refresh every two minutes.

Flight plan parsing failed; only flown route is shown


Map Options




Map Legend


Flown Route
Filed Route
Departure Airport
Arrival Airport
Navaid (VOR, NDB)
Fix

Horizontal Profiles

Position Reports

Time Latitude Longitude Heading Altitude Ground
Speed
28-Jun-21 09:54 29.984744 -95.349819 45 109ft 0kts
28-Jun-21 09:55 29.984744 -95.349819 45 109ft 0kts
28-Jun-21 09:56 29.984744 -95.349819 45 109ft 0kts
28-Jun-21 09:57 29.984744 -95.349819 45 109ft 0kts
28-Jun-21 09:58 29.984744 -95.349819 45 109ft 0kts
28-Jun-21 09:59 29.984744 -95.349819 45 109ft 0kts
28-Jun-21 10:00 29.984744 -95.349819 45 109ft 0kts
28-Jun-21 10:01 29.984744 -95.349819 45 109ft 0kts
28-Jun-21 10:02 29.984506 -95.350046 69 109ft 0kts
28-Jun-21 10:03 29.984510 -95.353738 334 109ft 22kts
28-Jun-21 10:04 29.987984 -95.356497 265 109ft 2kts
28-Jun-21 10:05 29.979835 -95.352885 152 110ft 120kts
28-Jun-21 10:06 29.940977 -95.322739 100 1761ft 193kts
28-Jun-21 10:07 29.986514 -95.291558 14 3819ft 243kts
28-Jun-21 10:08 30.053683 -95.262036 25 5654ft 265kts
28-Jun-21 10:09 30.119703 -95.222084 29 7451ft 272kts
28-Jun-21 10:10 30.185641 -95.176616 32 9259ft 279kts
28-Jun-21 10:11 30.251544 -95.126805 33 10005ft 285kts
28-Jun-21 10:12 30.319907 -95.073122 34 10711ft 327kts
28-Jun-21 10:13 30.402158 -95.008360 33 11751ft 376kts
28-Jun-21 10:14 30.490057 -94.940561 33 12755ft 382kts
28-Jun-21 10:15 30.579104 -94.872177 33 13752ft 387kts
28-Jun-21 10:16 30.669892 -94.802411 33 14757ft 393kts
28-Jun-21 10:17 30.761647 -94.731671 33 15759ft 399kts
28-Jun-21 10:18 30.854629 -94.659929 33 16756ft 404kts
28-Jun-21 10:19 30.948916 -94.586927 33 17758ft 410kts
28-Jun-21 10:20 31.044677 -94.512669 33 18013ft 413kts
28-Jun-21 10:21 31.140768 -94.438068 33 19021ft 418kts
28-Jun-21 10:22 31.238367 -94.362053 33 20022ft 424kts
28-Jun-21 10:23 31.337475 -94.284652 33 21028ft 430kts
28-Jun-21 10:24 31.437415 -94.206332 33 22023ft 437kts
28-Jun-21 10:25 31.539563 -94.126585 31 23026ft 443kts
28-Jun-21 10:26 31.645932 -94.051250 33 24029ft 449kts
28-Jun-21 10:27 31.747633 -93.965850 37 24983ft 452kts
28-Jun-21 10:28 31.848386 -93.874477 37 25006ft 459kts
28-Jun-21 10:29 31.949121 -93.782290 37 25004ft 459kts
28-Jun-21 10:30 32.049823 -93.689918 37 25004ft 458kts
28-Jun-21 10:31 32.150613 -93.597254 37 25189ft 458kts
28-Jun-21 10:32 32.250944 -93.504811 38 26180ft 457kts
28-Jun-21 10:33 32.350771 -93.412462 38 27173ft 453kts
28-Jun-21 10:34 32.449230 -93.321217 38 28161ft 447kts
28-Jun-21 10:35 32.546433 -93.230751 38 29150ft 439kts
28-Jun-21 10:36 32.641325 -93.142276 38 30131ft 429kts
28-Jun-21 10:37 32.732479 -93.053868 41 31009ft 419kts
28-Jun-21 10:38 32.823368 -92.963830 37 31008ft 431kts
28-Jun-21 10:39 32.920645 -92.877423 36 31008ft 442kts
28-Jun-21 10:40 33.021265 -92.789790 36 31008ft 453kts
28-Jun-21 10:41 33.124058 -92.700180 36 31008ft 464kts
28-Jun-21 10:42 33.229284 -92.608144 36 31008ft 474kts
28-Jun-21 10:43 33.341594 -92.523595 30 31006ft 483kts
28-Jun-21 10:44 33.449784 -92.426639 42 31007ft 491kts
28-Jun-21 10:45 33.543764 -92.306200 50 31005ft 496kts
28-Jun-21 10:46 33.629380 -92.176416 52 31006ft 497kts
28-Jun-21 10:47 33.714121 -92.045591 52 31006ft 497kts
28-Jun-21 10:48 33.799296 -91.914131 52 31005ft 497kts
28-Jun-21 10:49 33.883810 -91.783318 52 31004ft 497kts
28-Jun-21 10:50 33.968568 -91.651524 52 31004ft 497kts
28-Jun-21 10:51 34.052901 -91.519893 52 31003ft 497kts
28-Jun-21 10:52 34.137392 -91.387591 52 31004ft 497kts
28-Jun-21 10:53 34.221490 -91.255474 52 31004ft 497kts
28-Jun-21 10:55 34.305520 -91.122859 52 31005ft 497kts
28-Jun-21 10:56 34.388389 -90.991630 52 31849ft 484kts
28-Jun-21 10:57 34.468688 -90.864076 52 32825ft 468kts
28-Jun-21 10:58 34.545863 -90.741111 52 33792ft 449kts
28-Jun-21 10:59 34.619898 -90.622675 52 34752ft 428kts
28-Jun-21 11:00 34.689677 -90.510684 52 35687ft 404kts
28-Jun-21 11:01 34.756286 -90.404147 46 35996ft 393kts
28-Jun-21 11:02 34.814931 -90.293253 70 35419ft 406kts
28-Jun-21 11:03 34.856023 -90.160638 67 34490ft 433kts
28-Jun-21 11:04 34.907169 -90.022598 64 33542ft 461kts
28-Jun-21 11:05 34.963160 -89.877660 64 33006ft 479kts
28-Jun-21 11:06 35.020314 -89.729422 64 33007ft 485kts
28-Jun-21 11:07 35.077808 -89.579542 64 33007ft 490kts
28-Jun-21 11:08 35.135511 -89.428388 65 33006ft 492kts
28-Jun-21 11:09 35.193222 -89.276549 65 33003ft 492kts
28-Jun-21 11:10 35.250664 -89.124870 65 33006ft 492kts
28-Jun-21 11:11 35.308036 -88.972495 65 33005ft 492kts
28-Jun-21 11:12 35.364966 -88.820572 65 33003ft 492kts
28-Jun-21 11:13 35.422061 -88.667610 65 33005ft 492kts
28-Jun-21 11:14 35.478594 -88.515303 65 33007ft 492kts
28-Jun-21 11:15 35.535176 -88.362169 65 33004ft 492kts
28-Jun-21 11:15 35.582135 -88.234420 65 33007ft 492kts
28-Jun-21 11:17 35.647568 -88.055685 65 33005ft 492kts
28-Jun-21 11:18 35.703521 -87.901925 65 33007ft 492kts
28-Jun-21 11:19 35.759237 -87.748103 65 33003ft 492kts
28-Jun-21 11:19 35.805585 -87.619670 66 33007ft 492kts
28-Jun-21 11:21 35.870027 -87.439994 66 33006ft 492kts
28-Jun-21 11:22 35.932322 -87.289406 62 33003ft 492kts
28-Jun-21 11:22 35.980468 -87.161543 66 33004ft 492kts
28-Jun-21 11:23 36.032374 -87.005243 68 33003ft 492kts
28-Jun-21 11:25 36.092188 -86.822392 68 33003ft 492kts
28-Jun-21 11:25 36.134823 -86.691674 68 33006ft 492kts
28-Jun-21 11:26 36.185842 -86.534740 68 33004ft 492kts
28-Jun-21 11:27 36.236631 -86.377406 68 33004ft 492kts
28-Jun-21 11:28 36.287372 -86.219609 68 33006ft 492kts
28-Jun-21 11:29 36.337785 -86.061827 68 33006ft 492kts
28-Jun-21 11:30 36.387925 -85.904137 68 33003ft 492kts
28-Jun-21 11:31 36.437977 -85.745869 68 33005ft 492kts
28-Jun-21 11:32 36.487696 -85.587649 68 33006ft 492kts
28-Jun-21 11:33 36.537267 -85.429063 68 33004ft 492kts
28-Jun-21 11:34 36.586651 -85.270350 68 33003ft 492kts
28-Jun-21 11:35 36.635920 -85.110991 69 33005ft 492kts
28-Jun-21 11:36 36.684800 -84.951917 69 33006ft 492kts
28-Jun-21 11:37 36.733623 -84.792534 69 33005ft 492kts
28-Jun-21 11:38 36.782119 -84.632867 69 33003ft 492kts
28-Jun-21 11:39 36.830407 -84.473293 69 33006ft 492kts
28-Jun-21 11:40 36.878578 -84.313073 69 33006ft 492kts
28-Jun-21 11:41 36.926406 -84.153024 69 33004ft 492kts
28-Jun-21 11:42 36.974082 -83.992573 69 33004ft 492kts
28-Jun-21 11:43 37.021409 -83.832339 69 33006ft 492kts
28-Jun-21 11:44 37.068711 -83.671131 69 33006ft 492kts
28-Jun-21 11:45 37.115697 -83.510277 69 33004ft 492kts
28-Jun-21 11:46 37.162503 -83.349068 70 33004ft 492kts
28-Jun-21 11:47 37.208980 -83.187845 70 33005ft 492kts
28-Jun-21 11:48 37.255403 -83.026102 70 33007ft 492kts
28-Jun-21 11:49 37.301533 -82.864124 70 33005ft 492kts
28-Jun-21 11:50 37.347470 -82.702153 70 33003ft 492kts
28-Jun-21 11:51 37.393130 -82.540140 70 33005ft 492kts
28-Jun-21 11:52 37.438595 -82.377641 70 33006ft 492kts
28-Jun-21 11:53 37.483690 -82.215471 70 33005ft 492kts
28-Jun-21 11:54 37.528889 -82.052192 70 33003ft 492kts
28-Jun-21 11:55 37.573550 -81.889577 70 33006ft 492kts
28-Jun-21 11:56 37.618167 -81.726407 71 33006ft 492kts
28-Jun-21 11:57 37.662426 -81.563241 71 33005ft 492kts
28-Jun-21 11:58 37.707848 -81.399840 68 33005ft 492kts
28-Jun-21 11:59 37.730525 -81.230068 84 33004ft 492kts
28-Jun-21 12:00 37.748641 -81.058665 81 33006ft 492kts
28-Jun-21 12:01 37.770428 -80.887735 80 33005ft 492kts
28-Jun-21 12:02 37.795974 -80.717963 78 33004ft 492kts
28-Jun-21 12:03 37.811349 -80.546264 85 33005ft 492kts
28-Jun-21 12:04 37.822167 -80.373742 84 33006ft 492kts
28-Jun-21 12:05 37.834525 -80.201302 84 33006ft 492kts
28-Jun-21 12:06 37.846816 -80.028956 84 33003ft 492kts
28-Jun-21 12:07 37.859700 -79.856429 85 33004ft 492kts
28-Jun-21 12:08 37.869873 -79.683478 85 33006ft 492kts
28-Jun-21 12:09 37.879310 -79.511063 86 33006ft 492kts
28-Jun-21 12:10 37.892629 -79.338408 81 33006ft 492kts
28-Jun-21 12:11 37.895220 -79.166025 96 33006ft 492kts
28-Jun-21 12:12 37.866621 -78.996459 106 33003ft 492kts
28-Jun-21 12:13 37.822664 -78.832890 109 33006ft 492kts
28-Jun-21 12:14 37.775497 -78.670142 110 33006ft 492kts
28-Jun-21 12:15 37.728360 -78.507550 110 33006ft 492kts
28-Jun-21 12:16 37.681145 -78.345698 110 33003ft 492kts
28-Jun-21 12:17 37.633646 -78.183531 110 33004ft 492kts
28-Jun-21 12:18 37.598951 -78.017289 99 33006ft 492kts
28-Jun-21 12:19 37.575224 -77.847359 100 33004ft 492kts
28-Jun-21 12:20 37.547833 -77.678052 103 33003ft 492kts
28-Jun-21 12:21 37.529520 -77.507541 95 33004ft 492kts
28-Jun-21 12:22 37.514154 -77.336393 97 33006ft 492kts
28-Jun-21 12:23 37.496571 -77.164904 97 33005ft 492kts
28-Jun-21 12:24 37.477160 -76.995413 84 33017ft 492kts
28-Jun-21 12:25 37.496769 -76.824773 82 33003ft 492kts
28-Jun-21 12:26 37.507561 -76.652925 87 33006ft 492kts
28-Jun-21 12:27 37.513582 -76.481220 87 33006ft 492kts
28-Jun-21 12:28 37.519397 -76.308652 87 33003ft 492kts
28-Jun-21 12:29 37.525017 -76.136176 87 33006ft 492kts
28-Jun-21 12:30 37.554170 -75.970122 63 33014ft 492kts
28-Jun-21 12:31 37.630558 -75.828066 47 33007ft 492kts
28-Jun-21 12:32 37.734024 -75.715061 36 33003ft 492kts
28-Jun-21 12:33 37.848947 -75.620942 30 33006ft 492kts
28-Jun-21 12:34 37.966495 -75.532435 30 33006ft 492kts
28-Jun-21 12:35 38.082104 -75.449085 27 32389ft 454kts
28-Jun-21 12:36 38.192448 -75.378410 26 31386ft 440kts
28-Jun-21 12:37 38.301226 -75.309670 26 30386ft 433kts
28-Jun-21 12:38 38.408600 -75.241606 26 29229ft 426kts
28-Jun-21 12:39 38.513252 -75.175018 26 27830ft 417kts
28-Jun-21 12:40 38.616201 -75.109297 26 26428ft 408kts
28-Jun-21 12:41 38.716490 -75.045037 26 25027ft 399kts
28-Jun-21 12:42 38.814698 -74.981927 26 23626ft 390kts
28-Jun-21 12:43 38.910816 -74.920022 26 22225ft 382kts
28-Jun-21 12:44 39.004379 -74.860106 35 20617ft 366kts
28-Jun-21 12:45 39.082135 -74.781691 38 18815ft 347kts
28-Jun-21 12:46 39.156937 -74.707374 37 17005ft 331kts
28-Jun-21 12:47 39.228732 -74.636989 37 15202ft 318kts
28-Jun-21 12:48 39.298142 -74.569073 37 13399ft 308kts
28-Jun-21 12:49 39.365276 -74.503199 37 11601ft 299kts
28-Jun-21 12:50 39.428424 -74.437783 39 10453ft 277kts
28-Jun-21 12:51 39.487219 -74.374759 39 9859ft 274kts
28-Jun-21 12:52 39.545582 -74.311342 40 9255ft 271kts
28-Jun-21 12:53 39.603019 -74.248502 40 8659ft 269kts
28-Jun-21 12:54 39.659901 -74.185973 40 7743ft 267kts
28-Jun-21 12:55 39.717177 -74.122880 40 6761ft 272kts
28-Jun-21 12:56 39.774737 -74.060048 37 5758ft 268kts
28-Jun-21 12:57 39.834875 -74.003870 34 4762ft 264kts
28-Jun-21 12:58 39.896470 -73.952521 31 3760ft 260kts
28-Jun-21 12:59 39.962256 -73.919849 0 3037ft 257kts
28-Jun-21 13:00 40.033940 -73.917461 1 3003ft 257kts
28-Jun-21 13:01 40.105461 -73.914984 1 3004ft 257kts
28-Jun-21 13:02 40.177017 -73.912503 1 3006ft 257kts
28-Jun-21 13:03 40.248544 -73.910032 1 3003ft 257kts
28-Jun-21 13:04 40.317973 -73.907632 1 2995ft 221kts
28-Jun-21 13:05 40.377237 -73.905557 1 2504ft 210kts
28-Jun-21 13:06 40.435191 -73.899920 19 2498ft 210kts
28-Jun-21 13:07 40.488612 -73.871060 23 2544ft 220kts
28-Jun-21 13:08 40.552136 -73.844136 20 2219ft 236kts
28-Jun-21 13:09 40.603331 -73.801063 35 809ft 181kts
28-Jun-21 13:10 40.640285 -73.771479 28 26ft 104kts
28-Jun-21 13:11 40.643059 -73.770065 338 25ft 0kts
28-Jun-21 13:12 40.643059 -73.770065 338 25ft 0kts

Navigation Log

Ident Type
Flight plan parsing failed, navigation log unavailable